Time;durP1;ratioP1;P1;durP2;ratioP2;P2;SDS_P1;SDS_P2;PMS_P1;PMS_P2;Temp;Humidity;BMP_temperature;BMP_pressure;BME280_temperature;BME280_humidity;BME280_pressure;Samples;Min_cycle;Max_cycle;Signal;HPM_P1;HPM_P2
2021/04/15 00:01:23;;;;;;;1999.90;999.90;;;;;;;2.92;95.54;98664.25;5009791;28;20045;-62
2021/04/15 00:03:50;;;;;;;1999.90;999.90;;;;;;;2.34;96.42;98658.75;5003239;28;20065;-62
2021/04/15 00:06:19;;;;;;;1999.90;999.90;;;;;;;2.64;97.71;98653.47;5009055;28;20471;-63
2021/04/15 00:08:47;;;;;;;1999.90;999.90;;;;;;;2.56;96.59;98651.25;5005096;28;20060;-62
2021/04/15 00:11:15;;;;;;;1999.90;999.90;;;;;;;2.68;96.15;98656.50;5004999;28;20112;-63
2021/04/15 00:13:50;;;;;;;1999.90;999.90;;;;;;;3.08;95.03;98644.06;5004258;28;20062;-63
2021/04/15 00:16:17;;;;;;;1999.90;999.90;;;;;;;3.08;94.45;98652.25;5007640;28;20101;-62
2021/04/15 00:18:44;;;;;;;1999.90;999.90;;;;;;;2.94;93.50;98653.84;5012271;28;20046;-63
2021/04/15 00:21:11;;;;;;;1999.90;999.90;;;;;;;2.48;95.63;98654.47;5006745;28;20073;-62
2021/04/15 00:23:37;;;;;;;1999.90;999.90;;;;;;;2.59;95.52;98656.19;5017606;28;20092;-63
2021/04/15 00:26:07;;;;;;;1999.90;999.90;;;;;;;2.85;95.29;98648.09;5005248;28;20532;-63
2021/04/15 00:28:33;;;;;;;1999.90;999.90;;;;;;;3.06;93.41;98651.69;5020931;28;20219;-63
2021/04/15 00:30:59;;;;;;;1999.90;999.90;;;;;;;2.83;94.03;98650.28;5009063;28;20050;-63
2021/04/15 00:33:26;;;;;;;1999.90;999.90;;;;;;;2.56;93.99;98650.41;5009754;28;20049;-62
2021/04/15 00:35:53;;;;;;;1999.90;999.90;;;;;;;3.25;93.37;98641.09;5008215;28;20081;-63
2021/04/15 00:38:23;;;;;;;1999.90;999.90;;;;;;;3.04;92.28;98645.69;5007552;28;20050;-63
2021/04/15 00:40:50;;;;;;;1999.90;999.90;;;;;;;3.07;93.36;98647.06;5007695;28;20062;-62
2021/04/15 00:43:18;;;;;;;1999.90;999.90;;;;;;;3.61;91.42;98648.50;5002429;28;20448;-63
2021/04/15 00:45:46;;;;;;;1999.90;999.90;;;;;;;3.85;89.53;98655.06;5022429;28;20092;-63
2021/04/15 00:48:36;;;;;;;1999.90;999.90;;;;;;;3.56;89.38;98645.75;5005925;28;20092;-63
2021/04/15 00:51:23;;;;;;;1999.90;999.90;;;;;;;2.93;92.44;98638.53;5013082;28;20066;-62
2021/04/15 00:53:55;;;;;;;1999.90;999.90;;;;;;;3.04;93.23;98644.84;5004254;28;20553;-63
2021/04/15 00:56:21;;;;;;;;;;;;;;;2.47;95.13;98642.75;5005161;28;20056;-63
2021/04/15 00:58:50;;;;;;;1999.90;999.90;;;;;;;3.44;92.23;98649.59;5009265;28;19967;-63
2021/04/15 01:01:18;;;;;;;1999.90;999.90;;;;;;;2.71;93.93;98646.94;5008313;28;20072;-63
2021/04/15 01:03:44;;;;;;;1999.90;999.90;;;;;;;2.73;94.37;98651.03;5012046;28;20096;-62
2021/04/15 01:06:10;;;;;;;1999.90;999.90;;;;;;;3.06;94.10;98648.97;5008606;28;20065;-63
2021/04/15 01:08:37;;;;;;;1999.90;999.90;;;;;;;2.80;93.96;98650.81;5003713;28;20408;-63
2021/04/15 01:11:26;;;;;;;1999.90;999.90;;;;;;;3.01;93.71;98640.75;5004449;28;20050;-63
2021/04/15 01:14:24;;;;;;;1999.90;999.90;;;;;;;3.02;92.81;98650.59;5004346;28;20108;-63
2021/04/15 01:16:58;;;;;;;1999.90;999.90;;;;;;;3.48;91.94;98645.22;5004118;28;20057;-63
2021/04/15 01:20:08;;;;;;;1999.90;999.90;;;;;;;2.93;93.54;98644.84;5010564;28;20552;-63
2021/04/15 01:22:46;;;;;;;1999.90;999.90;;;;;;;3.13;92.22;98644.06;5008441;28;20115;-63
2021/04/15 01:25:27;;;;;;;1999.90;999.90;;;;;;;3.39;91.22;98641.38;5003031;28;20105;-63
2021/04/15 01:28:35;;;;;;;1999.90;999.90;;;;;;;3.46;89.94;98647.41;5011766;28;20046;-63
2021/04/15 01:31:13;;;;;;;1999.90;999.90;;;;;;;3.63;89.93;98643.59;5008360;28;20492;-63
2021/04/15 01:34:01;;;;;;;1999.90;999.90;;;;;;;3.40;90.04;98637.56;5004992;28;20045;-63
2021/04/15 01:36:41;;;;;;;1999.90;999.90;;;;;;;2.77;92.68;98630.31;5012366;28;20058;-63
2021/04/15 01:39:15;;;;;;;1999.90;999.90;;;;;;;3.31;91.39;98645.47;5011125;28;20049;-63
2021/04/15 01:41:50;;;;;;;1999.90;999.90;;;;;;;2.68;93.64;98636.53;5006746;28;20100;-63
2021/04/15 01:44:30;;;;;;;1999.90;999.90;;;;;;;3.25;91.81;98634.81;5015283;28;20114;-62
2021/04/15 01:47:01;;;;;;;1999.90;999.90;;;;;;;3.35;90.63;98629.34;5003777;28;20160;-63
2021/04/15 01:49:31;;;;;;;1999.90;999.90;;;;;;;3.22;92.07;98632.63;4997429;28;20142;-63
2021/04/15 01:51:59;;;;;;;1999.90;999.90;;;;;;;2.93;91.90;98627.63;5005687;28;20050;-63
2021/04/15 01:54:35;;;;;;;1999.90;999.90;;;;;;;2.99;93.30;98629.25;5016990;28;20526;-63
2021/04/15 01:57:04;;;;;;;1999.90;999.90;;;;;;;3.25;92.18;98612.94;5007608;28;20054;-63
2021/04/15 01:59:53;;;;;;;1999.90;999.90;;;;;;;3.28;92.33;98620.59;5013160;28;20057;-63
2021/04/15 02:02:23;;;;;;;1999.90;999.90;;;;;;;2.77;92.25;98624.84;5008153;28;20054;-63
2021/04/15 02:05:11;;;;;;;1999.90;999.90;;;;;;;2.92;92.98;98626.00;5006741;28;20045;-63
2021/04/15 02:07:45;;;;;;;1999.90;999.90;;;;;;;3.08;92.42;98630.41;5007796;28;20038;-63
2021/04/15 02:10:13;;;;;;;1999.90;999.90;;;;;;;2.96;93.22;98624.34;5005393;28;20061;-63
2021/04/15 02:12:43;;;;;;;1999.90;999.90;;;;;;;3.07;93.25;98628.75;5005725;28;20049;-63
2021/04/15 02:15:17;;;;;;;1999.90;999.90;;;;;;;3.01;91.90;98624.38;5005079;28;20049;-63
2021/04/15 02:17:43;;;;;;;1999.90;999.90;;;;;;;2.91;92.59;98625.16;5006427;28;20108;-63
2021/04/15 02:20:16;;;;;;;1999.90;999.90;;;;;;;2.98;93.43;98624.91;5002891;28;20081;-63
2021/04/15 02:22:58;;;;;;;1999.90;999.90;;;;;;;3.29;92.15;98624.94;5003036;28;20049;-63
2021/04/15 02:25:30;;;;;;;;;;;;;;;3.35;91.32;98618.44;5004780;28;20517;-63
2021/04/15 02:28:40;;;;;;;1999.90;999.90;;;;;;;2.84;92.74;98619.13;5004128;28;19925;-63
2021/04/15 02:31:38;;;;;;;1999.90;999.90;;;;;;;3.38;91.95;98625.25;4997660;28;20049;-63
2021/04/15 02:34:08;;;;;;;1999.90;999.90;;;;;;;3.20;90.83;98616.50;5008536;28;20046;-63
2021/04/15 02:36:53;;;;;;;1999.90;999.90;;;;;;;3.39;90.51;98624.97;5006238;28;20136;-63
2021/04/15 02:39:29;;;;;;;1999.90;999.90;;;;;;;2.96;91.53;98622.44;5005640;28;20185;-63
2021/04/15 02:41:56;;;;;;;1999.90;999.90;;;;;;;2.90;92.79;98612.56;5003060;28;20049;-63
2021/04/15 02:44:34;;;;;;;1999.90;999.90;;;;;;;2.95;92.47;98617.25;5009812;28;20050;-63
2021/04/15 02:47:06;;;;;;;1999.90;999.90;;;;;;;2.84;93.48;98613.66;5004837;28;20053;-63
2021/04/15 02:49:33;;;;;;;;;;;;;;;2.66;94.35;98616.88;5001667;28;20046;-63
2021/04/15 02:52:09;;;;;;;1999.90;999.90;;;;;;;2.90;92.97;98618.03;5004804;28;19992;-63
2021/04/15 02:54:44;;;;;;;1999.90;999.90;;;;;;;3.09;92.63;98614.81;5005621;28;20536;-63
2021/04/15 02:57:18;;;;;;;1999.90;999.90;;;;;;;2.57;93.86;98619.28;5009245;28;20042;-63
2021/04/15 03:00:00;;;;;;;1999.90;999.90;;;;;;;2.60;94.72;98616.03;5003480;28;20113;-63
2021/04/15 03:02:33;;;;;;;1999.90;999.90;;;;;;;2.33;95.18;98613.47;5002329;28;20050;-63
2021/04/15 03:05:09;;;;;;;1999.90;999.90;;;;;;;2.62;95.01;98616.56;5007595;28;20046;-63
2021/04/15 03:07:39;;;;;;;1999.90;999.90;;;;;;;2.23;96.56;98614.22;5004112;28;20109;-63
2021/04/15 03:10:13;;;;;;;1999.90;999.90;;;;;;;2.08;97.56;98613.06;5004134;28;20497;-63
2021/04/15 03:12:46;;;;;;;1999.90;999.90;;;;;;;2.15;98.18;98618.28;5004535;28;20046;-63
2021/04/15 03:15:17;;;;;;;1999.90;999.90;;;;;;;2.28;96.70;98612.34;5008440;28;20050;-63
2021/04/15 03:17:48;;;;;;;1999.90;999.90;;;;;;;2.14;97.15;98607.63;4997076;28;20097;-63
2021/04/15 03:20:24;;;;;;;1999.90;999.90;;;;;;;2.58;96.30;98615.50;5005357;28;20054;-63
2021/04/15 03:23:21;;;;;;;1999.90;999.90;;;;;;;2.97;94.51;98613.13;5002454;28;20061;-63
2021/04/15 03:25:51;;;;;;;1999.90;999.90;;;;;;;2.59;94.46;98608.91;5001735;28;20100;-63
2021/04/15 03:28:28;;;;;;;1999.90;999.90;;;;;;;2.59;94.95;98611.66;5008288;28;20077;-63
2021/04/15 03:31:05;;;;;;;1999.90;999.90;;;;;;;2.64;95.29;98614.41;5001126;28;20117;-63
2021/04/15 03:33:47;;;;;;;1999.90;999.90;;;;;;;2.67;94.84;98613.88;5007463;28;20050;-63
2021/04/15 03:36:22;;;;;;;1999.90;999.90;;;;;;;2.63;95.04;98613.59;5010937;28;20053;-63
2021/04/15 03:38:53;;;;;;;1999.90;999.90;;;;;;;2.84;93.91;98613.66;5000227;28;20049;-63
2021/04/15 03:41:27;;;;;;;1999.90;999.90;;;;;;;2.54;94.44;98614.38;5007253;28;20440;-63
2021/04/15 03:44:01;;;;;;;1999.90;999.90;;;;;;;2.05;96.41;98613.56;5002197;28;20509;-62
2021/04/15 03:46:36;;;;;;;1999.90;999.90;;;;;;;2.44;97.35;98610.50;5004647;28;20077;-63
2021/04/15 03:49:12;;;;;;;1999.90;999.90;;;;;;;2.38;96.71;98617.03;5005944;28;20141;-63
2021/04/15 03:51:49;;;;;;;1999.90;999.90;;;;;;;2.14;96.48;98604.88;5008154;28;20099;-64
2021/04/15 03:54:22;;;;;;;1999.90;999.90;;;;;;;2.61;95.78;98604.84;4999608;28;20054;-64
2021/04/15 03:56:56;;;;;;;1999.90;999.90;;;;;;;2.40;96.04;98609.41;5002162;28;20061;-63
2021/04/15 03:59:41;;;;;;;1999.90;999.90;;;;;;;2.44;95.87;98610.50;4999503;28;20057;-64
2021/04/15 04:02:13;;;;;;;1999.90;999.90;;;;;;;2.55;95.29;98607.84;5002547;28;20050;-64
2021/04/15 04:04:39;;;;;;;1999.90;999.90;;;;;;;2.88;93.88;98614.75;5001168;28;20100;-64
2021/04/15 04:07:16;;;;;;;1999.90;999.90;;;;;;;2.96;93.54;98610.69;4993502;28;20054;-64
2021/04/15 04:09:47;;;;;;;1999.90;999.90;;;;;;;2.89;93.39;98615.56;5004466;28;20054;-63
2021/04/15 04:12:39;;;;;;;1999.90;999.90;;;;;;;2.18;96.00;98606.81;4993535;28;20057;-64
2021/04/15 04:15:11;;;;;;;1999.90;999.90;;;;;;;2.21;96.32;98608.22;5001502;28;20061;-64
2021/04/15 04:18:02;;;;;;;1999.90;999.90;;;;;;;2.16;96.31;98610.91;5003801;28;20057;-64
2021/04/15 04:20:31;;;;;;;1999.90;999.90;;;;;;;1.84;97.43;98617.25;5000186;28;20104;-64
2021/04/15 04:23:08;;;;;;;1999.90;999.90;;;;;;;2.21;97.26;98614.47;5000805;28;20846;-64
2021/04/15 04:25:56;;;;;;;1999.90;999.90;;;;;;;1.99;96.93;98609.16;5003474;28;20054;-64
2021/04/15 04:28:30;;;;;;;1999.90;999.90;;;;;;;2.19;96.52;98613.94;4998662;28;20050;-64
2021/04/15 04:30:56;;;;;;;1999.90;999.90;;;;;;;2.15;96.14;98610.09;4999960;28;20046;-64
2021/04/15 04:33:33;;;;;;;1999.90;999.90;;;;;;;2.16;96.76;98613.63;4999755;28;20373;-64
2021/04/15 04:35:59;;;;;;;1999.90;999.90;;;;;;;2.46;95.67;98610.25;5001236;28;20050;-64
2021/04/15 04:38:26;;;;;;;1999.90;999.90;;;;;;;2.35;95.41;98617.53;5002035;28;20057;-64
2021/04/15 04:41:03;;;;;;;1999.90;999.90;;;;;;;2.14;95.05;98604.88;5007501;28;20057;-64
2021/04/15 04:43:40;;;;;;;1999.90;999.90;;;;;;;2.10;95.93;98612.78;5005797;28;20645;-65
2021/04/15 04:46:14;;;;;;;1999.90;999.90;;;;;;;1.74;97.92;98607.91;5000098;28;20050;-65
2021/04/15 04:48:49;;;;;;;1999.90;999.90;;;;;;;1.91;98.12;98602.31;5004659;28;20468;-65
2021/04/15 04:51:18;;;;;;;1999.90;999.90;;;;;;;2.04;98.06;98613.81;5002734;28;20464;-65
2021/04/15 04:53:48;;;;;;;1999.90;999.90;;;;;;;1.79;97.80;98619.94;5006356;28;20436;-66
2021/04/15 04:56:16;;;;;;;1999.90;999.90;;;;;;;1.86;99.19;98607.72;5001966;28;20050;-65
2021/04/15 04:58:49;;;;;;;1999.90;999.90;;;;;;;1.51;99.68;98611.00;5003998;28;20050;-65
2021/04/15 05:01:15;;;;;;;1999.90;999.90;;;;;;;1.62;100.00;98607.25;5008638;28;20111;-65
2021/04/15 05:03:41;;;;;;;1999.90;999.90;;;;;;;1.93;100.00;98610.22;5003851;28;20120;-65
2021/04/15 05:06:10;;;;;;;1999.90;999.90;;;;;;;1.71;99.94;98602.16;5006513;28;20073;-66
2021/04/15 05:09:11;;;;;;;1999.90;999.90;;;;;;;1.60;100.00;98609.44;5004822;28;20053;-66
2021/04/15 05:11:44;;;;;;;1999.90;999.90;;;;;;;1.56;100.00;98611.03;5004944;28;20053;-67
2021/04/15 05:14:14;;;;;;;1999.90;999.90;;;;;;;2.13;99.75;98609.53;4992441;28;20049;-67
2021/04/15 05:16:46;;;;;;;1999.90;999.90;;;;;;;1.76;98.68;98611.19;5001963;28;20046;-66
2021/04/15 05:19:13;;;;;;;1999.90;999.90;;;;;;;1.46;100.00;98600.88;5002382;28;20046;-67
2021/04/15 05:21:42;;;;;;;1999.90;999.90;;;;;;;1.79;100.00;98606.28;5000199;28;20049;-67
2021/04/15 05:24:29;;;;;;;1999.90;999.90;;;;;;;1.66;100.00;98602.94;5006701;28;20053;-67
2021/04/15 05:27:03;;;;;;;1999.90;999.90;;;;;;;2.10;100.00;98602.69;5003044;28;20049;-66
2021/04/15 05:29:37;;;;;;;1999.90;999.90;;;;;;;2.32;98.18;98598.97;5004569;28;20453;-66
2021/04/15 05:32:04;;;;;;;1999.90;999.90;;;;;;;2.24;97.81;98607.69;5007063;28;20102;-67
2021/04/15 05:34:35;;;;;;;1999.90;999.90;;;;;;;2.46;97.54;98607.53;5001452;28;20053;-67
2021/04/15 05:37:05;;;;;;;1999.90;999.90;;;;;;;2.45;96.50;98612.13;5010841;28;20060;-68
2021/04/15 05:39:31;;;;;;;1999.90;999.90;;;;;;;2.47;96.14;98609.97;4999755;28;20092;-68
2021/04/15 05:42:07;;;;;;;1999.90;999.90;;;;;;;2.51;96.09;98606.72;5001600;28;20104;-67
2021/04/15 05:44:42;;;;;;;1999.90;999.90;;;;;;;2.19;96.81;98602.19;5034767;28;20056;-68
2021/04/15 05:47:13;;;;;;;1999.90;999.90;;;;;;;1.91;98.83;98596.84;4997738;28;20124;-68
2021/04/15 05:49:47;;;;;;;1999.90;999.90;;;;;;;1.97;98.75;98599.63;5002823;28;20046;-67
2021/04/15 05:52:24;;;;;;;1999.90;999.90;;;;;;;2.11;98.55;98612.53;5002665;28;20132;-68
2021/04/15 05:54:53;;;;;;;1999.90;999.90;;;;;;;2.22;97.83;98604.38;5005258;28;20057;-67
2021/04/15 05:57:26;;;;;;;1999.90;999.90;;;;;;;1.98;97.42;98607.53;5001773;28;20056;-67
2021/04/15 06:00:12;;;;;;;1999.90;999.90;;;;;;;1.72;100.00;98603.81;5001457;28;20054;-67
2021/04/15 06:02:43;;;;;;;1999.90;999.90;;;;;;;1.66;100.00;98605.66;5002839;28;20505;-68
2021/04/15 06:05:25;;;;;;;1999.90;999.90;;;;;;;1.76;100.00;98604.94;5004470;28;20046;-68
2021/04/15 06:07:56;;;;;;;1999.90;999.90;;;;;;;2.29;99.31;98605.81;5003666;28;20049;-68
2021/04/15 06:10:25;;;;;;;1999.90;999.90;;;;;;;2.02;98.51;98592.25;5000263;28;20058;-67
2021/04/15 06:13:04;;;;;;;1999.90;999.90;;;;;;;1.91;99.21;98606.94;5007925;28;20058;-67
2021/04/15 06:15:39;;;;;;;1999.90;999.90;;;;;;;1.78;99.49;98601.94;5006167;28;20052;-68
2021/04/15 06:18:23;;;;;;;1999.90;999.90;;;;;;;1.45;100.00;98603.88;5002441;28;20493;-67
2021/04/15 06:21:44;;;;;;;1999.90;999.90;;;;;;;1.77;100.00;98601.09;5007291;28;20471;-68
2021/04/15 06:24:17;;;;;;;1999.90;999.90;;;;;;;1.70;100.00;98590.44;5020477;28;20330;-68
2021/04/15 06:26:46;;;;;;;1999.90;999.90;;;;;;;1.85;100.00;98595.16;5001334;28;20228;-68
2021/04/15 06:29:40;;;;;;;1999.90;999.90;;;;;;;2.31;100.00;98594.63;5005036;28;20057;-69
2021/04/15 06:32:11;;;;;;;1999.90;999.90;;;;;;;1.71;100.00;98586.63;4999539;28;20054;-68
2021/04/15 06:34:38;;;;;;;1999.90;999.90;;;;;;;2.17;100.00;98585.25;5004255;28;20057;-69
2021/04/15 06:37:18;;;;;;;1999.90;999.90;;;;;;;2.12;100.00;98586.06;4997825;28;20061;-68
2021/04/15 06:39:58;;;;;;;1999.90;999.90;;;;;;;1.88;100.00;98593.84;4999380;28;20042;-68
2021/04/15 06:42:42;;;;;;;1999.90;999.90;;;;;;;1.79;100.00;98600.84;5005114;28;20050;-68
2021/04/15 06:45:15;;;;;;;1999.90;999.90;;;;;;;1.39;100.00;98598.38;4998789;28;20123;-68
2021/04/15 06:47:50;;;;;;;1999.90;999.90;;;;;;;1.56;100.00;98590.06;5032405;28;20058;-67
2021/04/15 06:50:37;;;;;;;1999.90;999.90;;;;;;;1.78;100.00;98588.31;4999430;28;20085;-68
2021/04/15 06:53:10;;;;;;;1999.90;999.90;;;;;;;1.89;100.00;98588.13;5000455;28;20061;-68
2021/04/15 06:56:04;;;;;;;1999.90;999.90;;;;;;;2.06;99.80;98582.47;5003319;28;20584;-68
2021/04/15 06:58:41;;;;;;;1999.90;999.90;;;;;;;1.82;100.00;98582.06;5005013;28;20056;-68
2021/04/15 07:01:36;;;;;;;1999.90;999.90;;;;;;;1.78;100.00;98589.13;5002594;28;20054;-68
2021/04/15 07:04:09;;;;;;;1999.90;999.90;;;;;;;1.94;100.00;98581.88;5012525;28;20084;-68
2021/04/15 07:06:44;;;;;;;1999.90;999.90;;;;;;;2.19;100.00;98586.66;4998480;28;20065;-69
2021/04/15 07:09:48;;;;;;;1999.90;999.90;;;;;;;2.32;99.50;98579.88;5002709;28;20045;-67
2021/04/15 07:12:41;;;;;;;1999.90;999.90;;;;;;;1.84;100.00;98584.53;5000071;28;20062;-67
2021/04/15 07:15:13;;;;;;;1999.90;999.90;;;;;;;2.03;100.00;98588.47;4997151;28;20046;-68
2021/04/15 07:18:07;;;;;;;1999.90;999.90;;;;;;;2.13;100.00;98581.41;4997865;28;20053;-68
2021/04/15 07:21:08;;;;;;;1999.90;999.90;;;;;;;1.85;100.00;98594.38;5002202;28;20103;-68
2021/04/15 07:23:34;;;;;;;1999.90;999.90;;;;;;;2.36;100.00;98593.81;4999966;28;20061;-68
2021/04/15 07:26:10;;;;;;;1999.90;999.90;;;;;;;2.52;98.90;98590.06;5000998;28;20061;-68
2021/04/15 07:29:08;;;;;;;1999.90;999.90;;;;;;;1.86;99.05;98588.63;4997025;28;20050;-68
2021/04/15 07:31:58;;;;;;;1999.90;999.90;;;;;;;2.03;100.00;98590.38;4997050;28;20046;-68
2021/04/15 07:34:33;;;;;;;1999.90;999.90;;;;;;;1.90;100.00;98594.38;5003615;28;20145;-67
2021/04/15 07:37:37;;;;;;;1999.90;999.90;;;;;;;1.85;100.00;98591.63;5002828;28;20050;-67
2021/04/15 07:40:03;;;;;;;1999.90;999.90;;;;;;;1.47;100.00;98597.06;4999938;28;20129;-67
2021/04/15 07:42:53;;;;;;;1999.90;999.90;;;;;;;1.94;100.00;98590.84;5025002;28;20054;-68
2021/04/15 07:45:27;;;;;;;1999.90;999.90;;;;;;;2.05;100.00;98597.19;4996652;28;20046;-66
2021/04/15 07:48:20;;;;;;;1999.90;999.90;;;;;;;2.19;100.00;98583.06;5003570;28;20560;-66
2021/04/15 07:51:05;;;;;;;1999.90;999.90;;;;;;;2.11;100.00;98590.72;4999762;28;20092;-66
2021/04/15 07:53:43;;;;;;;1999.90;999.90;;;;;;;2.07;100.00;98597.78;5006973;28;20050;-65
2021/04/15 07:56:15;;;;;;;1999.90;999.90;;;;;;;2.55;99.92;98595.00;5004449;28;20054;-65
2021/04/15 07:58:44;;;;;;;1999.90;999.90;;;;;;;1.96;100.00;98598.78;5000908;28;20066;-65
2021/04/15 08:01:29;;;;;;;1999.90;999.90;;;;;;;2.11;100.00;98590.72;5003242;28;20057;-65
2021/04/15 08:04:19;;;;;;;1999.90;999.90;;;;;;;2.22;99.30;98594.31;4998191;28;20113;-65
2021/04/15 08:07:19;;;;;;;1999.90;999.90;;;;;;;1.76;100.00;98594.84;5001037;28;20054;-65
2021/04/15 08:10:13;;;;;;;1999.90;999.90;;;;;;;2.27;100.00;98590.78;5005854;28;20111;-66
2021/04/15 08:12:53;;;;;;;1999.90;999.90;;;;;;;2.41;100.00;98594.66;5004814;28;20478;-65
2021/04/15 08:15:41;;;;;;;1999.90;999.90;;;;;;;2.01;100.00;98598.81;5010543;28;20183;-65
2021/04/15 08:18:35;;;;;;;1999.90;999.90;;;;;;;2.13;100.00;98592.31;5003785;28;20064;-65
2021/04/15 08:21:25;;;;;;;1999.90;999.90;;;;;;;1.28;100.00;98602.09;5002520;28;20756;-65
2021/04/15 08:24:15;;;;;;;1999.90;999.90;;;;;;;1.33;100.00;98595.88;5003742;28;20515;-65
2021/04/15 08:27:04;;;;;;;1999.90;999.90;;;;;;;1.88;100.00;98596.56;5007904;28;20085;-65
2021/04/15 08:29:49;;;;;;;1999.90;999.90;;;;;;;1.81;100.00;98593.25;5003783;28;20096;-64
2021/04/15 08:32:35;;;;;;;1999.90;999.90;;;;;;;2.01;100.00;98590.66;5007765;28;20057;-64
2021/04/15 08:35:26;;;;;;;1999.90;999.90;;;;;;;2.01;100.00;98595.25;5004776;28;20145;-64
2021/04/15 08:38:10;;;;;;;1999.90;999.90;;;;;;;1.89;100.00;98599.03;5001905;28;20108;-64
2021/04/15 08:40:44;;;;;;;1999.90;999.90;;;;;;;1.23;100.00;98593.88;5009177;28;20054;-64
2021/04/15 08:43:37;;;;;;;1999.90;999.90;;;;;;;1.65;100.00;98598.56;5004716;28;20061;-65
2021/04/15 08:46:10;;;;;;;1999.90;999.90;;;;;;;1.66;100.00;98596.69;5002337;28;20563;-65
2021/04/15 08:48:48;;;;;;;1999.90;999.90;;;;;;;1.70;100.00;98593.16;5002753;28;20066;-65
2021/04/15 08:51:43;;;;;;;1999.90;999.90;;;;;;;1.89;100.00;98587.28;5000472;28;20078;-64
2021/04/15 08:54:12;;;;;;;1999.90;999.90;;;;;;;2.06;100.00;98587.13;5004881;28;20108;-65
2021/04/15 08:56:49;;;;;;;1999.90;999.90;;;;;;;1.98;100.00;98583.00;4998652;28;20057;-65
2021/04/15 08:59:21;;;;;;;1999.90;999.90;;;;;;;1.88;100.00;98582.94;5000353;28;20058;-65
2021/04/15 09:01:59;;;;;;;1999.90;999.90;;;;;;;1.55;100.00;98593.88;5005783;28;20049;-64
2021/04/15 09:04:33;;;;;;;1999.90;999.90;;;;;;;1.26;100.00;98593.34;5005749;28;20060;-65
2021/04/15 09:07:21;;;;;;;1999.90;999.90;;;;;;;1.56;100.00;98592.78;5005460;28;20560;-65
2021/04/15 09:10:17;;;;;;;1999.90;999.90;;;;;;;1.88;100.00;98591.91;5008237;28;20128;-64
2021/04/15 09:12:52;;;;;;;1999.90;999.90;;;;;;;2.12;100.00;98594.25;5006978;28;20050;-65
2021/04/15 09:15:34;;;;;;;1999.90;999.90;;;;;;;1.85;100.00;98594.38;5004807;28;20494;-64
2021/04/15 09:18:13;;;;;;;1999.90;999.90;;;;;;;1.76;100.00;98588.56;5004208;28;20060;-63
2021/04/15 09:20:47;;;;;;;1999.90;999.90;;;;;;;1.93;100.00;98593.84;4998857;28;20077;-63
2021/04/15 09:23:16;;;;;;;1999.90;999.90;;;;;;;1.60;100.00;98595.81;5001508;28;20049;-63
2021/04/15 09:26:00;;;;;;;1999.90;999.90;;;;;;;1.78;100.00;98588.31;5003877;28;20528;-63
2021/04/15 09:28:40;;;;;;;1999.90;999.90;;;;;;;1.99;100.00;98590.06;5009405;28;20046;-63
2021/04/15 09:31:16;;;;;;;1999.90;999.90;;;;;;;1.78;100.00;98596.50;5004401;28;20115;-64
2021/04/15 09:33:45;;;;;;;1999.90;999.90;;;;;;;1.65;100.00;98598.56;5004266;28;20620;-64
2021/04/15 09:36:17;;;;;;;1999.90;999.90;;;;;;;1.87;100.00;98593.00;5011406;28;20069;-64
2021/04/15 09:39:09;;;;;;;1999.90;999.90;;;;;;;2.08;100.00;98595.84;4999081;28;20053;-63
2021/04/15 09:41:47;;;;;;;1999.90;999.90;;;;;;;2.34;100.00;98596.81;5019770;28;20054;-63
2021/04/15 09:44:34;;;;;;;1999.90;999.90;;;;;;;1.92;100.00;98592.19;5002935;28;20050;-63
2021/04/15 09:47:13;;;;;;;1999.90;999.90;;;;;;;2.39;100.00;98585.91;5001430;28;20353;-63
2021/04/15 09:50:10;;;;;;;1999.90;999.90;;;;;;;2.50;100.00;98586.78;5008476;28;20077;-63
2021/04/15 09:53:01;;;;;;;1999.90;999.90;;;;;;;2.38;99.27;98589.75;5000407;28;20050;-62
2021/04/15 09:55:39;;;;;;;1999.90;999.90;;;;;;;2.32;100.00;98588.06;5002903;28;20474;-63
2021/04/15 09:58:20;;;;;;;1999.90;999.90;;;;;;;1.92;100.00;98578.56;5001792;28;20603;-63
2021/04/15 10:00:50;;;;;;;1999.90;999.90;;;;;;;1.66;100.00;98581.13;4999190;28;20105;-63
2021/04/15 10:03:29;;;;;;;1999.90;999.90;;;;;;;1.87;100.00;98573.09;5001681;28;20050;-63
2021/04/15 10:06:21;;;;;;;1999.90;999.90;;;;;;;1.97;100.00;98570.44;5000770;28;20062;-62
2021/04/15 10:08:56;;;;;;;1999.90;999.90;;;;;;;2.26;100.00;98576.31;5009642;28;20046;-62
2021/04/15 10:11:42;;;;;;;1999.90;999.90;;;;;;;2.17;100.00;98575.16;5003909;28;20473;-62
2021/04/15 10:14:35;;;;;;;1999.90;999.90;;;;;;;2.16;100.00;98575.44;5002635;28;20120;-62
2021/04/15 10:17:39;;;;;;;1999.90;999.90;;;;;;;2.17;100.00;98571.63;5007484;28;20057;-62
2021/04/15 10:20:53;;;;;;;1999.90;999.90;;;;;;;2.50;100.00;98577.75;5005322;28;20591;-62
2021/04/15 10:23:29;;;;;;;1999.90;999.90;;;;;;;2.45;100.00;98575.84;4994026;28;20049;-62
2021/04/15 10:25:59;;;;;;;1999.90;999.90;;;;;;;1.84;100.00;98579.06;5004657;28;20060;-62
2021/04/15 10:28:52;;;;;;;1999.90;999.90;;;;;;;2.15;100.00;98574.63;5001363;28;20056;-62
2021/04/15 10:31:21;;;;;;;1999.90;999.90;;;;;;;2.19;100.00;98574.88;5002888;28;20061;-63
2021/04/15 10:34:03;;;;;;;1999.90;999.90;;;;;;;1.65;100.00;98576.75;4998775;28;20054;-63
2021/04/15 10:36:40;;;;;;;1999.90;999.90;;;;;;;1.63;100.00;98569.94;5005168;28;20767;-63
2021/04/15 10:39:30;;;;;;;1999.90;999.90;;;;;;;2.01;100.00;98568.81;5003554;28;20560;-63
2021/04/15 10:42:20;;;;;;;1999.90;999.90;;;;;;;1.93;100.00;98569.31;5000618;28;20053;-62
2021/04/15 10:44:46;;;;;;;1999.90;999.90;;;;;;;2.44;100.00;98572.28;4997442;28;20124;-62
2021/04/15 10:47:28;;;;;;;1999.90;999.90;;;;;;;2.27;100.00;98571.66;4998597;28;20061;-63
2021/04/15 10:50:00;;;;;;;1999.90;999.90;;;;;;;1.69;100.00;98569.69;5001658;28;20412;-63
2021/04/15 10:52:33;;;;;;;1999.90;999.90;;;;;;;2.06;100.00;98574.28;5000375;28;20497;-63
2021/04/15 10:55:11;;;;;;;1999.90;999.90;;;;;;;2.44;100.00;98561.38;5000386;28;20057;-63
2021/04/15 10:57:37;;;;;;;1999.90;999.90;;;;;;;2.10;100.00;98572.69;5001888;28;20063;-62
2021/04/15 11:00:21;;;;;;;1999.90;999.90;;;;;;;2.22;100.00;98568.91;5000794;28;20050;-63
2021/04/15 11:02:51;;;;;;;1999.90;999.90;;;;;;;1.85;100.00;98564.38;5004198;28;20057;-63
2021/04/15 11:05:28;;;;;;;1999.90;999.90;;;;;;;1.88;100.00;98561.91;5002531;28;20073;-62
2021/04/15 11:08:05;;;;;;;1999.90;999.90;;;;;;;2.36;100.00;98559.16;5000769;28;20057;-62
2021/04/15 11:10:33;;;;;;;1999.90;999.90;;;;;;;2.74;100.00;98564.47;5003270;28;20052;-63
2021/04/15 11:13:19;;;;;;;1999.90;999.90;;;;;;;2.29;99.29;98564.03;5002622;28;20112;-62
2021/04/15 11:15:53;;;;;;;1999.90;999.90;;;;;;;2.58;100.00;98563.63;5004226;28;20053;-63
2021/04/15 11:18:37;;;;;;;1999.90;999.90;;;;;;;2.22;100.00;98566.19;4999749;28;20050;-63
2021/04/15 11:21:24;;;;;;;1999.90;999.90;;;;;;;2.23;100.00;98570.56;4998187;28;20165;-63
2021/04/15 11:23:53;;;;;;;1999.90;999.90;;;;;;;2.20;100.00;98562.91;5002194;28;20112;-63
2021/04/15 11:26:26;;;;;;;1999.90;999.90;;;;;;;2.16;100.00;98565.34;4999946;28;20448;-63
2021/04/15 11:28:59;;;;;;;1999.90;999.90;;;;;;;2.16;100.00;98559.06;5003300;28;20099;-62
2021/04/15 11:31:39;;;;;;;1999.90;999.90;;;;;;;1.98;100.00;98563.91;5000744;28;20519;-62
2021/04/15 11:34:09;;;;;;;1999.90;999.90;;;;;;;1.99;100.00;98564.72;5002106;28;20053;-62
2021/04/15 11:36:39;;;;;;;1999.90;999.90;;;;;;;2.03;100.00;98572.09;5005118;28;20108;-62
2021/04/15 11:39:05;;;;;;;1999.90;999.90;;;;;;;2.36;100.00;98561.88;4998024;28;20049;-62
2021/04/15 11:41:51;;;;;;;1999.90;999.90;;;;;;;2.26;100.00;98570.03;5001026;28;20050;-63
2021/04/15 11:44:28;;;;;;;1999.90;999.90;;;;;;;2.01;100.00;98563.38;4996902;28;20521;-63
2021/04/15 11:46:57;;;;;;;1999.90;999.90;;;;;;;1.50;100.00;98568.47;5004075;28;20046;-63